createdAt,value
2019-06-20T00:00:08.278Z,0.00
2019-06-20T00:02:00.581Z,0.00
2019-06-20T00:03:06.090Z,0.00
2019-06-20T00:04:12.641Z,0.00
2019-06-20T00:05:17.211Z,0.00
2019-06-20T00:06:23.587Z,0.00
2019-06-20T00:07:28.336Z,0.00
2019-06-20T00:08:33.871Z,0.00
2019-06-20T00:09:40.147Z,0.00
2019-06-20T00:10:44.984Z,0.00
2019-06-20T00:11:50.538Z,0.00
2019-06-20T00:13:00.402Z,0.00
2019-06-20T00:14:01.650Z,0.00
2019-06-20T00:15:16.076Z,0.00
2019-06-20T00:17:10.814Z,0.00
2019-06-20T00:18:16.257Z,0.00
2019-06-20T00:19:21.808Z,0.00
2019-06-20T00:20:27.371Z,0.00
2019-06-20T00:21:32.919Z,0.00
2019-06-20T00:22:38.515Z,0.00
2019-06-20T00:23:44.040Z,0.00
2019-06-20T00:24:49.605Z,0.00
2019-06-20T00:25:55.152Z,0.00
2019-06-20T00:27:00.698Z,0.00
2019-06-20T00:28:06.265Z,0.00
2019-06-20T00:29:11.804Z,0.00
2019-06-20T00:30:25.062Z,0.00
2019-06-20T00:32:17.349Z,0.00
2019-06-20T00:33:22.916Z,0.00
2019-06-20T00:35:34.520Z,0.00
2019-06-20T00:36:40.000Z,0.00
2019-06-20T00:37:45.570Z,0.00
2019-06-20T00:38:51.103Z,0.00
2019-06-20T00:39:56.662Z,0.00
2019-06-20T00:41:02.870Z,0.00
2019-06-20T00:42:07.770Z,0.00
2019-06-20T00:43:17.513Z,0.00
2019-06-20T00:44:18.881Z,0.00
2019-06-20T00:45:32.130Z,0.00
2019-06-20T00:47:28.079Z,0.00
2019-06-20T00:48:33.520Z,0.00
2019-06-20T00:49:39.070Z,0.00
2019-06-20T00:50:44.610Z,0.00
2019-06-20T00:51:50.162Z,0.00
2019-06-20T00:52:56.483Z,0.00
2019-06-20T00:55:33.460Z,0.00
2019-06-20T00:56:38.994Z,0.00
2019-06-20T00:58:38.958Z,0.00
2019-06-20T00:59:45.520Z,0.00
2019-06-20T01:01:43.746Z,0.00
2019-06-20T01:02:49.240Z,0.00
2019-06-20T01:04:49.322Z,0.00
2019-06-20T01:05:54.746Z,0.00
2019-06-20T01:07:54.729Z,0.00
2019-06-20T01:09:00.264Z,0.00
2019-06-20T01:11:01.823Z,0.00
2019-06-20T01:12:07.293Z,0.00
2019-06-20T01:13:12.853Z,0.00
2019-06-20T01:14:18.455Z,0.00
2019-06-20T01:15:31.681Z,0.00
2019-06-20T01:17:27.551Z,0.00
2019-06-20T01:18:33.000Z,0.00
2019-06-20T01:20:32.985Z,0.00
2019-06-20T01:21:38.511Z,0.00
2019-06-20T01:23:40.631Z,0.00
2019-06-20T01:24:45.577Z,0.00
2019-06-20T01:26:45.552Z,0.00
2019-06-20T01:27:51.081Z,0.00
2019-06-20T01:29:53.200Z,0.00
2019-06-20T01:31:05.987Z,0.00
2019-06-20T01:32:58.103Z,0.00
2019-06-20T01:34:03.689Z,0.00
2019-06-20T01:36:05.789Z,0.00
2019-06-20T01:37:10.686Z,0.00
2019-06-20T01:38:16.297Z,0.00
2019-06-20T01:39:21.808Z,0.00
2019-06-20T01:40:27.357Z,0.00
2019-06-20T01:43:07.119Z,0.00
2019-06-20T01:44:12.579Z,0.00
2019-06-20T01:46:11.609Z,0.00
2019-06-20T01:47:17.153Z,0.00
2019-06-20T01:49:16.108Z,0.00
2019-06-20T01:50:21.658Z,0.00
2019-06-20T01:52:20.647Z,0.00
2019-06-20T01:53:26.175Z,0.00
2019-06-20T01:55:26.236Z,0.00
2019-06-20T01:56:31.737Z,0.00
2019-06-20T01:57:38.169Z,0.00
2019-06-20T01:58:42.821Z,0.00
2019-06-20T01:59:49.171Z,0.00
2019-06-20T02:01:01.782Z,0.00
2019-06-20T02:02:52.920Z,0.00
2019-06-20T02:03:58.457Z,0.00
2019-06-20T02:05:58.424Z,0.00
2019-06-20T02:07:03.995Z,0.00
2019-06-20T02:09:03.933Z,0.00
2019-06-20T02:10:09.456Z,0.00
2019-06-20T02:12:09.052Z,0.00
2019-06-20T02:13:14.159Z,0.00
2019-06-20T02:15:21.782Z,0.00
2019-06-20T02:16:19.628Z,0.00
2019-06-20T02:18:21.368Z,4.00
2019-06-20T02:19:26.829Z,4.00
2019-06-20T02:20:32.392Z,4.00
2019-06-20T02:21:37.943Z,4.00
2019-06-20T02:22:43.493Z,0.00
2019-06-20T02:23:49.653Z,4.00
2019-06-20T02:24:54.599Z,4.00
2019-06-20T02:26:00.158Z,4.00
2019-06-20T02:27:05.709Z,4.00
2019-06-20T02:28:11.267Z,4.00
2019-06-20T02:29:17.729Z,8.00
2019-06-20T02:30:45.716Z,4.00
2019-06-20T02:32:25.443Z,8.00
2019-06-20T02:33:29.434Z,8.00
2019-06-20T02:35:29.393Z,12.00
2019-06-20T02:36:34.939Z,12.00
2019-06-20T02:38:36.609Z,12.00
2019-06-20T02:39:41.981Z,16.00
2019-06-20T02:41:41.942Z,20.00
2019-06-20T02:42:47.490Z,20.00
2019-06-20T02:46:27.239Z,28.00
2019-06-20T02:47:32.276Z,36.00
2019-06-20T02:48:37.838Z,36.00
2019-06-20T02:49:43.391Z,40.00
2019-06-20T02:50:48.943Z,44.00
2019-06-20T02:51:55.197Z,52.00
2019-06-20T02:53:00.060Z,52.00
2019-06-20T02:54:05.609Z,60.00
2019-06-20T02:55:11.164Z,64.00
2019-06-20T02:56:16.713Z,64.00
2019-06-20T02:57:23.205Z,64.00
2019-06-20T02:58:27.821Z,64.00
2019-06-20T02:59:33.390Z,64.00
2019-06-20T03:00:46.976Z,68.00
2019-06-20T03:02:39.524Z,76.00
2019-06-20T03:03:44.440Z,80.00
2019-06-20T03:05:44.407Z,88.00
2019-06-20T03:06:49.938Z,92.00
2019-06-20T03:07:56.467Z,104.00
2019-06-20T03:09:01.054Z,108.00
2019-06-20T03:10:06.627Z,112.00
2019-06-20T03:11:12.190Z,116.00
2019-06-20T03:12:18.436Z,124.00
2019-06-20T03:13:23.320Z,128.00
2019-06-20T03:14:44.289Z,136.00
2019-06-20T03:15:42.215Z,140.00
2019-06-20T03:17:34.359Z,148.00
2019-06-20T03:18:39.932Z,148.00
2019-06-20T03:20:39.847Z,152.00
2019-06-20T03:21:45.396Z,152.00
2019-06-20T03:23:45.477Z,168.00
2019-06-20T03:24:50.948Z,180.00
2019-06-20T03:26:50.875Z,196.00
2019-06-20T03:27:56.410Z,196.00
2019-06-20T03:31:31.655Z,244.00
2019-06-20T03:32:36.844Z,264.00
2019-06-20T03:33:42.405Z,264.00
2019-06-20T03:34:48.032Z,256.00
2019-06-20T03:35:53.512Z,260.00
2019-06-20T03:36:59.611Z,264.00
2019-06-20T03:38:04.627Z,260.00
2019-06-20T03:39:10.200Z,268.00
2019-06-20T03:40:15.729Z,280.00
2019-06-20T03:41:21.281Z,280.00
2019-06-20T03:42:27.601Z,280.00
2019-06-20T03:43:32.392Z,268.00
2019-06-20T03:44:37.939Z,264.00
2019-06-20T03:45:51.338Z,260.00
2019-06-20T03:47:43.126Z,260.00
2019-06-20T03:48:48.013Z,260.00
2019-06-20T03:49:53.569Z,268.00
2019-06-20T03:50:59.121Z,288.00
2019-06-20T03:52:04.679Z,292.00
2019-06-20T03:53:10.265Z,304.00
2019-06-20T03:54:15.780Z,304.00
2019-06-20T03:55:21.332Z,316.00
2019-06-20T03:56:26.893Z,328.00
2019-06-20T03:57:32.447Z,336.00
2019-06-20T03:58:38.080Z,344.00
2019-06-20T03:59:43.555Z,360.00
2019-06-20T04:00:56.931Z,376.00
2019-06-20T04:02:49.090Z,432.00
2019-06-20T04:03:55.627Z,468.00
2019-06-20T04:05:54.570Z,544.00
2019-06-20T04:07:00.118Z,592.00
2019-06-20T04:09:00.188Z,804.00
2019-06-20T04:11:33.725Z,980.00
2019-06-20T04:12:39.186Z,976.00
2019-06-20T04:14:39.186Z,956.00
2019-06-20T04:15:52.595Z,948.00
2019-06-20T04:17:58.431Z,1012.00
2019-06-20T04:19:03.817Z,980.00
2019-06-20T04:20:09.372Z,952.00
2019-06-20T04:21:14.930Z,940.00
2019-06-20T04:22:20.480Z,928.00
2019-06-20T04:23:26.723Z,940.00
2019-06-20T04:24:52.606Z,980.00
2019-06-20T04:25:37.139Z,1056.00
2019-06-20T04:26:42.703Z,1048.00
2019-06-20T04:27:48.254Z,1056.00
2019-06-20T04:28:53.843Z,1116.00
2019-06-20T04:31:28.954Z,1056.00
2019-06-20T04:32:34.390Z,1064.00
2019-06-20T04:33:39.944Z,1004.00
2019-06-20T04:34:45.507Z,1016.00
2019-06-20T04:35:51.047Z,1064.00
2019-06-20T04:36:58.186Z,1252.00
2019-06-20T04:38:02.164Z,1128.00
2019-06-20T04:39:18.874Z,1280.00
2019-06-20T04:40:13.271Z,1252.00
2019-06-20T04:41:18.821Z,1308.00
2019-06-20T04:42:25.154Z,1320.00
2019-06-20T04:43:29.934Z,1236.00
2019-06-20T04:44:35.501Z,1232.00
2019-06-20T04:45:48.755Z,1244.00
2019-06-20T04:47:40.152Z,1252.00
2019-06-20T04:48:45.563Z,1156.00
2019-06-20T04:49:51.122Z,1240.00
2019-06-20T04:50:56.679Z,1168.00
2019-06-20T04:52:02.230Z,1308.00
2019-06-20T04:53:08.623Z,1384.00
2019-06-20T04:54:13.369Z,1448.00
2019-06-20T04:55:19.545Z,1492.00
2019-06-20T04:56:24.451Z,1448.00
2019-06-20T04:57:30.016Z,1544.00
2019-06-20T04:58:36.581Z,1644.00
2019-06-20T04:59:41.105Z,1616.00
2019-06-20T05:02:14.622Z,1636.00
2019-06-20T05:03:16.298Z,1736.00
2019-06-20T05:05:16.281Z,1888.00
2019-06-20T05:06:21.800Z,1848.00
2019-06-20T05:08:21.764Z,1912.00
2019-06-20T05:09:27.362Z,1844.00
2019-06-20T05:11:26.297Z,1752.00
2019-06-20T05:12:31.839Z,1768.00
2019-06-20T05:14:32.866Z,1684.00
2019-06-20T05:15:52.672Z,1944.00
2019-06-20T05:17:38.307Z,1672.00
2019-06-20T05:18:43.877Z,1924.00
2019-06-20T05:19:50.361Z,2004.00
2019-06-20T05:20:54.944Z,1640.00
2019-06-20T05:22:00.493Z,1732.00
2019-06-20T05:23:06.053Z,1588.00
2019-06-20T05:24:11.607Z,1772.00
2019-06-20T05:25:17.162Z,1268.00
2019-06-20T05:26:22.746Z,1444.00
2019-06-20T05:27:28.267Z,1308.00
2019-06-20T05:28:33.828Z,1356.00
2019-06-20T05:29:39.377Z,1544.00
2019-06-20T05:30:44.934Z,1688.00
2019-06-20T05:31:50.489Z,1716.00
2019-06-20T05:32:56.055Z,1888.00
2019-06-20T05:34:01.596Z,2032.00
2019-06-20T05:35:07.159Z,1752.00
2019-06-20T05:36:12.711Z,1536.00
2019-06-20T05:37:18.264Z,1768.00
2019-06-20T05:38:23.826Z,1800.00
2019-06-20T05:39:29.375Z,2100.00
2019-06-20T05:40:37.236Z,1912.00
2019-06-20T05:41:40.493Z,1904.00
2019-06-20T05:42:46.040Z,2344.00
2019-06-20T05:43:51.604Z,2896.00
2019-06-20T05:46:11.773Z,2224.00
2019-06-20T05:47:17.296Z,1472.00
2019-06-20T05:49:17.251Z,928.00
2019-06-20T05:50:22.901Z,932.00
2019-06-20T05:51:28.364Z,1000.00
2019-06-20T05:52:33.908Z,1408.00
2019-06-20T05:53:40.319Z,744.00
2019-06-20T05:54:56.937Z,768.00
2019-06-20T05:55:50.577Z,736.00
2019-06-20T05:56:56.135Z,656.00
2019-06-20T05:58:01.693Z,448.00
2019-06-20T05:59:08.160Z,620.00
2019-06-20T06:00:20.572Z,484.00
2019-06-20T06:02:12.803Z,400.00
2019-06-20T06:03:18.977Z,328.00
2019-06-20T06:05:19.323Z,1068.00
2019-06-20T06:06:23.822Z,648.00
2019-06-20T06:07:29.380Z,820.00
2019-06-20T06:08:34.932Z,684.00
2019-06-20T06:09:40.484Z,444.00
2019-06-20T06:10:47.069Z,384.00
2019-06-20T06:11:51.978Z,620.00
2019-06-20T06:12:57.166Z,560.00
2019-06-20T06:14:02.707Z,640.00
2019-06-20T06:15:16.961Z,1148.00
2019-06-20T06:17:08.295Z,1192.00
2019-06-20T06:18:14.224Z,1012.00
2019-06-20T06:20:13.793Z,632.00
2019-06-20T06:21:19.334Z,640.00
2019-06-20T06:23:19.325Z,656.00
2019-06-20T06:24:24.839Z,684.00
2019-06-20T06:26:24.807Z,544.00
2019-06-20T06:27:35.371Z,480.00
2019-06-20T06:29:30.338Z,340.00
2019-06-20T06:30:43.600Z,332.00
2019-06-20T06:32:40.097Z,408.00
2019-06-20T06:33:41.369Z,284.00
2019-06-20T06:34:46.955Z,284.00
2019-06-20T06:35:52.491Z,292.00
2019-06-20T06:36:58.093Z,252.00
2019-06-20T06:38:10.480Z,208.00
2019-06-20T06:39:09.147Z,256.00
2019-06-20T06:40:14.709Z,356.00
2019-06-20T06:41:20.262Z,460.00
2019-06-20T06:42:25.813Z,396.00
2019-06-20T06:43:41.772Z,384.00
2019-06-20T06:44:36.923Z,404.00
2019-06-20T06:45:50.225Z,372.00
2019-06-20T06:47:42.462Z,612.00
2019-06-20T06:48:50.057Z,600.00
2019-06-20T06:50:47.943Z,612.00
2019-06-20T06:51:53.493Z,668.00
2019-06-20T06:53:54.565Z,696.00
2019-06-20T06:55:00.013Z,656.00
2019-06-20T06:56:58.961Z,508.00
2019-06-20T06:58:04.504Z,444.00
2019-06-20T07:00:21.304Z,356.00
2019-06-20T07:01:19.230Z,384.00
2019-06-20T07:03:19.106Z,400.00
2019-06-20T07:04:24.654Z,344.00
2019-06-20T07:06:23.652Z,372.00
2019-06-20T07:07:29.204Z,440.00
2019-06-20T07:09:30.114Z,1000.00
2019-06-20T07:10:44.393Z,792.00
2019-06-20T07:12:44.301Z,708.00
2019-06-20T07:15:09.952Z,888.00
2019-06-20T07:16:07.822Z,988.00
2019-06-20T07:18:11.428Z,872.00
2019-06-20T07:19:31.833Z,760.00
2019-06-20T07:20:22.469Z,716.00
2019-06-20T07:21:30.850Z,648.00
2019-06-20T07:22:35.348Z,712.00
2019-06-20T07:23:39.835Z,608.00
2019-06-20T07:24:44.687Z,488.00
2019-06-20T07:26:01.059Z,448.00
2019-06-20T07:26:55.744Z,484.00
2019-06-20T07:28:01.288Z,572.00
2019-06-20T07:29:06.853Z,520.00
2019-06-20T07:30:20.089Z,544.00
2019-06-20T07:32:12.484Z,420.00
2019-06-20T07:33:17.937Z,304.00
2019-06-20T07:34:23.465Z,244.00
2019-06-20T07:35:29.012Z,216.00
2019-06-20T07:36:34.568Z,284.00
2019-06-20T07:37:40.941Z,420.00
2019-06-20T07:38:45.676Z,568.00
2019-06-20T07:39:51.230Z,460.00
2019-06-20T07:40:56.801Z,388.00
2019-06-20T07:42:02.356Z,340.00
2019-06-20T07:43:09.447Z,556.00
2019-06-20T07:44:13.446Z,560.00
2019-06-20T07:45:27.481Z,620.00
2019-06-20T07:47:18.986Z,652.00
2019-06-20T07:48:29.582Z,924.00
2019-06-20T07:50:24.497Z,680.00
2019-06-20T07:51:30.015Z,900.00
2019-06-20T07:53:29.998Z,1492.00
2019-06-20T07:54:35.623Z,1228.00
2019-06-20T07:55:41.141Z,652.00
2019-06-20T07:56:46.841Z,1488.00
2019-06-20T07:58:07.077Z,1300.00
2019-06-20T07:58:57.803Z,1284.00
2019-06-20T08:00:11.014Z,1800.00
2019-06-20T08:02:02.316Z,1948.00
2019-06-20T08:03:07.844Z,1456.00
2019-06-20T08:05:17.048Z,1000.00
2019-06-20T08:06:22.466Z,1180.00
2019-06-20T08:07:28.026Z,1648.00
2019-06-20T08:08:33.580Z,1736.00
2019-06-20T08:09:44.904Z,1596.00
2019-06-20T08:10:49.410Z,1444.00
2019-06-20T08:11:50.246Z,1064.00
2019-06-20T08:12:55.804Z,1000.00
2019-06-20T08:14:01.379Z,984.00
2019-06-20T08:15:15.988Z,1152.00
2019-06-20T08:17:09.436Z,1096.00
2019-06-20T08:18:14.969Z,1124.00
2019-06-20T08:19:20.517Z,1116.00
2019-06-20T08:20:26.077Z,928.00
2019-06-20T08:21:31.634Z,1008.00
2019-06-20T08:22:37.229Z,1036.00
2019-06-20T08:23:42.763Z,1284.00
2019-06-20T08:24:48.956Z,1592.00
2019-06-20T08:25:53.995Z,1524.00
2019-06-20T08:27:00.362Z,1472.00
2019-06-20T08:28:06.610Z,1612.00
2019-06-20T08:29:20.716Z,1360.00
2019-06-20T08:30:16.980Z,1460.00
2019-06-20T08:31:42.640Z,1608.00
2019-06-20T08:32:27.192Z,1420.00
2019-06-20T08:33:32.781Z,964.00
2019-06-20T08:34:38.294Z,784.00
2019-06-20T08:35:43.851Z,884.00
2019-06-20T08:36:51.920Z,1048.00
2019-06-20T08:37:56.054Z,1120.00
2019-06-20T08:39:00.526Z,1012.00
2019-06-20T08:40:06.569Z,984.00
2019-06-20T08:41:11.633Z,932.00
2019-06-20T08:42:17.205Z,940.00
2019-06-20T08:43:22.751Z,1468.00
2019-06-20T08:44:28.311Z,1724.00
2019-06-20T08:45:41.583Z,1576.00
2019-06-20T08:47:32.958Z,1600.00
2019-06-20T08:48:38.409Z,1168.00
2019-06-20T08:50:38.409Z,924.00
2019-06-20T08:51:43.923Z,932.00
2019-06-20T08:53:44.889Z,624.00
2019-06-20T08:54:50.430Z,692.00
2019-06-20T08:56:49.443Z,736.00
2019-06-20T08:57:56.366Z,844.00
2019-06-20T09:01:27.097Z,636.00
2019-06-20T09:02:32.613Z,908.00
2019-06-20T09:03:38.176Z,1056.00
2019-06-20T09:04:43.732Z,1140.00
2019-06-20T09:05:49.315Z,1288.00
2019-06-20T09:06:56.974Z,1288.00
2019-06-20T09:09:06.074Z,1148.00
2019-06-20T09:10:33.142Z,940.00
2019-06-20T09:11:18.666Z,964.00
2019-06-20T09:12:33.708Z,1120.00
2019-06-20T09:13:31.122Z,1440.00
2019-06-20T09:14:33.731Z,1692.00
2019-06-20T09:15:46.977Z,2392.00
2019-06-20T09:17:38.321Z,1816.00
2019-06-20T09:18:44.828Z,1548.00
2019-06-20T09:19:50.294Z,1744.00
2019-06-20T09:20:55.981Z,1940.00
2019-06-20T09:22:00.569Z,2016.00
2019-06-20T09:23:06.087Z,1924.00
2019-06-20T09:24:13.353Z,1652.00
2019-06-20T09:25:17.139Z,1640.00
2019-06-20T09:26:22.694Z,1704.00
2019-06-20T09:27:28.250Z,1964.00
2019-06-20T09:28:33.810Z,1960.00
2019-06-20T09:29:42.140Z,1728.00
2019-06-20T09:30:53.926Z,1308.00
2019-06-20T09:32:44.904Z,1612.00
2019-06-20T09:33:52.175Z,1504.00
2019-06-20T09:35:52.155Z,1068.00
2019-06-20T09:36:57.440Z,1140.00
2019-06-20T09:38:01.490Z,1092.00
2019-06-20T09:39:07.048Z,1212.00
2019-06-20T09:40:14.500Z,1380.00
2019-06-20T09:41:18.209Z,1348.00
2019-06-20T09:42:23.714Z,1084.00
2019-06-20T09:43:29.279Z,1216.00
2019-06-20T09:44:34.827Z,1564.00
2019-06-20T09:45:49.548Z,1536.00
2019-06-20T09:47:40.369Z,1064.00
2019-06-20T09:48:45.895Z,1096.00
2019-06-20T09:50:44.882Z,1572.00
2019-06-20T09:51:50.438Z,1408.00
2019-06-20T09:53:49.961Z,1216.00
2019-06-20T09:54:56.059Z,1332.00
2019-06-20T09:56:56.543Z,1812.00
2019-06-20T09:58:00.451Z,1768.00
2019-06-20T10:00:10.636Z,1488.00
2019-06-20T10:01:05.964Z,1300.00
2019-06-20T10:03:05.935Z,960.00
2019-06-20T10:04:11.475Z,976.00
2019-06-20T10:06:14.423Z,1124.00
2019-06-20T10:07:16.991Z,1408.00
2019-06-20T10:09:16.953Z,1920.00
2019-06-20T10:10:22.501Z,2488.00
2019-06-20T10:12:23.557Z,3272.00
2019-06-20T10:13:32.815Z,3804.00
2019-06-20T10:15:36.655Z,3864.00
2019-06-20T10:16:45.218Z,3944.00
2019-06-20T10:18:34.529Z,3336.00
2019-06-20T10:19:40.022Z,3068.00
2019-06-20T10:21:40.035Z,2112.00
2019-06-20T10:22:46.953Z,1608.00
2019-06-20T10:24:51.229Z,1112.00
2019-06-20T10:25:55.572Z,1512.00
2019-06-20T10:27:55.560Z,1424.00
2019-06-20T10:29:01.099Z,2216.00
2019-06-20T10:31:13.690Z,2564.00
2019-06-20T10:32:21.146Z,2348.00
2019-06-20T10:33:25.654Z,2104.00
2019-06-20T10:34:31.280Z,1964.00
2019-06-20T10:35:34.908Z,2288.00
2019-06-20T10:36:40.465Z,2620.00
2019-06-20T10:37:47.151Z,2556.00
2019-06-20T10:38:52.642Z,2952.00
2019-06-20T10:39:57.196Z,3192.00
2019-06-20T10:41:02.772Z,3380.00
2019-06-20T10:42:15.126Z,3640.00
2019-06-20T10:43:24.916Z,3888.00
2019-06-20T10:44:21.140Z,3528.00
2019-06-20T10:45:32.775Z,3464.00
2019-06-20T10:47:32.603Z,3008.00
2019-06-20T10:48:30.491Z,3260.00
2019-06-20T10:50:30.437Z,3124.00
2019-06-20T10:51:35.959Z,2836.00
2019-06-20T10:52:42.498Z,3080.00
2019-06-20T10:53:47.197Z,3136.00
2019-06-20T10:54:55.462Z,3224.00
2019-06-20T10:55:58.195Z,3380.00
2019-06-20T10:57:03.745Z,3344.00
2019-06-20T10:58:09.304Z,3536.00
2019-06-20T10:59:14.866Z,3500.00
2019-06-20T11:00:31.559Z,2904.00
2019-06-20T11:02:20.408Z,2296.00
2019-06-20T11:03:25.942Z,2136.00
2019-06-20T11:05:25.959Z,2960.00
2019-06-20T11:06:33.486Z,2932.00
2019-06-20T11:07:37.011Z,2736.00
2019-06-20T11:08:43.296Z,2376.00
2019-06-20T11:09:49.403Z,2188.00
2019-06-20T11:10:54.471Z,2112.00
2019-06-20T11:11:59.240Z,2216.00
2019-06-20T11:13:04.795Z,2304.00
2019-06-20T11:14:10.367Z,2424.00
2019-06-20T11:16:43.486Z,2964.00
2019-06-20T11:17:48.327Z,2900.00
2019-06-20T11:19:46.102Z,3124.00
2019-06-20T11:20:51.653Z,3296.00
2019-06-20T11:22:58.299Z,3532.00
2019-06-20T11:24:03.200Z,3488.00
2019-06-20T11:25:08.763Z,3292.00
2019-06-20T11:26:14.325Z,3228.00
2019-06-20T11:27:19.888Z,2940.00
2019-06-20T11:28:25.439Z,2608.00
2019-06-20T11:29:31.005Z,3028.00
2019-06-20T11:30:48.246Z,3492.00
2019-06-20T11:31:45.952Z,3028.00
2019-06-20T11:32:54.643Z,2808.00
2019-06-20T11:33:53.222Z,2312.00
2019-06-20T11:34:58.782Z,1948.00
2019-06-20T11:36:04.353Z,1908.00
2019-06-20T11:37:09.927Z,1920.00
2019-06-20T11:38:15.458Z,1608.00
2019-06-20T11:39:21.025Z,1416.00
2019-06-20T11:40:26.579Z,1556.00
2019-06-20T11:41:32.136Z,1556.00
2019-06-20T11:42:37.820Z,1512.00
2019-06-20T11:43:43.261Z,1520.00
2019-06-20T11:44:48.813Z,1504.00
2019-06-20T11:46:02.136Z,1468.00
2019-06-20T11:47:54.380Z,1620.00
2019-06-20T11:49:00.903Z,1584.00
2019-06-20T11:50:59.856Z,1700.00
2019-06-20T11:52:06.396Z,1744.00
2019-06-20T11:54:06.982Z,1544.00
2019-06-20T11:55:11.923Z,1620.00
2019-06-20T11:56:17.478Z,1732.00
2019-06-20T11:57:23.035Z,1976.00
2019-06-20T11:58:28.593Z,2360.00
2019-06-20T11:59:34.211Z,2376.00
2019-06-20T12:01:02.496Z,2424.00
2019-06-20T12:02:41.101Z,2708.00
2019-06-20T12:03:45.228Z,2764.00
2019-06-20T12:05:44.834Z,3020.00
2019-06-20T12:06:51.876Z,2860.00
2019-06-20T12:08:49.767Z,2496.00
2019-06-20T12:09:55.295Z,2508.00
2019-06-20T12:11:54.371Z,2632.00
2019-06-20T12:12:59.823Z,2780.00
2019-06-20T12:15:07.510Z,3056.00
2019-06-20T12:16:05.858Z,3104.00
2019-06-20T12:18:06.930Z,3100.00
2019-06-20T12:19:12.401Z,3172.00
2019-06-20T12:20:17.974Z,3492.00
2019-06-20T12:21:23.522Z,3276.00
2019-06-20T12:22:29.084Z,3276.00
2019-06-20T12:23:35.416Z,3544.00
2019-06-20T12:24:41.651Z,3268.00
2019-06-20T12:25:46.535Z,3112.00
2019-06-20T12:26:51.330Z,3040.00
2019-06-20T12:27:56.867Z,2960.00
2019-06-20T12:29:03.449Z,2780.00
2019-06-20T12:30:15.675Z,2360.00
2019-06-20T12:32:09.980Z,1924.00
2019-06-20T12:33:13.525Z,1588.00
2019-06-20T12:35:12.749Z,972.00
2019-06-20T12:36:18.242Z,812.00
2019-06-20T12:38:19.264Z,556.00
2019-06-20T12:39:24.766Z,552.00
2019-06-20T12:41:24.745Z,680.00
2019-06-20T12:42:30.292Z,668.00
2019-06-20T12:44:30.263Z,696.00
2019-06-20T12:45:44.712Z,752.00
2019-06-20T12:47:34.802Z,836.00
2019-06-20T12:48:41.277Z,1332.00
2019-06-20T12:50:41.496Z,2152.00
2019-06-20T12:51:47.034Z,2180.00
2019-06-20T12:53:46.547Z,1832.00
2019-06-20T12:54:51.368Z,1604.00
2019-06-20T12:55:56.933Z,1480.00
2019-06-20T12:57:02.480Z,1492.00
2019-06-20T12:58:08.034Z,1636.00
2019-06-20T12:59:13.597Z,1760.00
2019-06-20T13:00:29.370Z,2020.00
2019-06-20T13:02:19.747Z,2968.00
2019-06-20T13:03:23.679Z,2764.00
2019-06-20T13:05:23.669Z,2636.00
2019-06-20T13:06:29.204Z,2800.00
2019-06-20T13:08:28.230Z,2868.00
2019-06-20T13:09:33.761Z,2800.00
2019-06-20T13:11:33.736Z,2728.00
2019-06-20T13:12:40.674Z,2812.00
2019-06-20T13:14:40.835Z,3184.00
2019-06-20T13:15:52.495Z,3140.00
2019-06-20T13:17:45.075Z,2612.00
2019-06-20T13:18:50.483Z,2640.00
2019-06-20T13:20:50.334Z,2608.00
2019-06-20T13:21:55.835Z,2436.00
2019-06-20T13:23:55.853Z,2000.00
2019-06-20T13:25:01.357Z,1760.00
2019-06-20T13:27:01.358Z,1720.00
2019-06-20T13:28:06.887Z,1704.00
2019-06-20T13:30:14.579Z,1752.00
2019-06-20T13:31:12.419Z,2124.00
2019-06-20T13:33:12.412Z,2508.00
2019-06-20T13:34:17.940Z,2696.00
2019-06-20T13:36:16.911Z,3116.00
2019-06-20T13:37:22.464Z,3356.00
2019-06-20T13:39:21.629Z,3176.00
2019-06-20T13:40:27.017Z,2704.00
2019-06-20T13:42:26.996Z,2336.00
2019-06-20T13:43:32.536Z,2596.00
2019-06-20T13:45:54.277Z,2580.00
2019-06-20T13:46:40.026Z,2584.00
2019-06-20T13:48:40.830Z,2156.00
2019-06-20T13:49:45.815Z,1804.00
2019-06-20T13:51:45.884Z,1584.00
2019-06-20T13:52:51.268Z,1536.00
2019-06-20T13:54:50.613Z,1164.00
2019-06-20T13:55:56.175Z,956.00
2019-06-20T13:57:56.150Z,1188.00
2019-06-20T13:59:01.681Z,1620.00
2019-06-20T14:01:00.809Z,2648.00
2019-06-20T14:02:07.209Z,2680.00
2019-06-20T14:04:06.241Z,2180.00
2019-06-20T14:05:11.777Z,1940.00
2019-06-20T14:07:13.896Z,2508.00
2019-06-20T14:08:20.811Z,2304.00
2019-06-20T14:09:24.407Z,1912.00
2019-06-20T14:10:29.943Z,1636.00
2019-06-20T14:11:35.510Z,1648.00
2019-06-20T14:12:43.048Z,1624.00
2019-06-20T14:13:49.712Z,1628.00
2019-06-20T14:14:52.352Z,1808.00
2019-06-20T14:16:05.413Z,1864.00
2019-06-20T14:17:57.809Z,1828.00
2019-06-20T14:19:04.833Z,1732.00
2019-06-20T14:20:08.820Z,1688.00
2019-06-20T14:21:14.381Z,1872.00
2019-06-20T14:22:19.941Z,2168.00
2019-06-20T14:23:27.316Z,2676.00
2019-06-20T14:24:31.822Z,2436.00
2019-06-20T14:25:36.621Z,2192.00
2019-06-20T14:26:44.657Z,2116.00
2019-06-20T14:27:49.026Z,1872.00
2019-06-20T14:28:53.299Z,1984.00
2019-06-20T14:31:11.865Z,2484.00
2019-06-20T14:32:22.253Z,2404.00
2019-06-20T14:34:17.371Z,1276.00
2019-06-20T14:35:22.932Z,1520.00
2019-06-20T14:37:21.929Z,2700.00
2019-06-20T14:38:27.446Z,2328.00
2019-06-20T14:40:29.058Z,2032.00
2019-06-20T14:43:01.090Z,1844.00
2019-06-20T14:44:14.444Z,1740.00
2019-06-20T14:46:05.582Z,1476.00
2019-06-20T14:47:11.179Z,1424.00
2019-06-20T14:49:12.796Z,2092.00
2019-06-20T14:50:18.200Z,2924.00
2019-06-20T14:51:23.758Z,3168.00
2019-06-20T14:52:29.308Z,2644.00
2019-06-20T14:53:34.878Z,2144.00
2019-06-20T23:53:39.471Z,0.00
2019-06-20T23:55:58.027Z,0.00
2019-06-20T23:58:20.561Z,0.00
2019-06-20T23:59:22.671Z,0.00
